Time;durP1;ratioP1;P1;durP2;ratioP2;P2;SDS_P1;SDS_P2;PMS_P1;PMS_P2;Temp;Humidity;BMP_temperature;BMP_pressure;BME280_temperature;BME280_humidity;BME280_pressure;Samples;Min_cycle;Max_cycle;Signal;HPM_P1;HPM_P2
2023/06/07 00:00:13;;;;;;;2.90;1.90;;;12.50;99.90;;;;;;5068216;28;20181;-71
2023/06/07 00:02:40;;;;;;;2.47;1.50;;;12.40;99.90;;;;;;5083042;28;20179;-71
2023/06/07 00:05:06;;;;;;;4.37;2.37;;;12.40;99.90;;;;;;5056513;28;20201;-71
2023/06/07 00:07:35;;;;;;;3.10;1.90;;;12.40;99.90;;;;;;5083131;28;20419;-71
2023/06/07 00:10:02;;;;;;;3.47;1.53;;;12.40;99.90;;;;;;5087028;28;20876;-71
2023/06/07 00:12:28;;;;;;;3.13;1.63;;;12.40;99.90;;;;;;5083001;28;20505;-71
2023/06/07 00:14:54;;;;;;;11.20;2.17;;;12.30;99.90;;;;;;5075697;28;20635;-71
2023/06/07 00:17:20;;;;;;;3.07;1.50;;;12.30;99.90;;;;;;5084193;28;20196;-71
2023/06/07 00:19:46;;;;;;;3.97;2.07;;;12.30;99.90;;;;;;5068893;28;20184;-71
2023/06/07 00:22:12;;;;;;;5.20;2.50;;;12.30;99.90;;;;;;5070760;28;20415;-71
2023/06/07 00:24:39;;;;;;;4.27;2.40;;;12.20;99.90;;;;;;5089969;28;20184;-72
2023/06/07 00:27:05;;;;;;;4.20;1.77;;;12.20;99.90;;;;;;5079899;28;20423;-71
2023/06/07 00:29:30;;;;;;;6.50;2.10;;;12.10;99.90;;;;;;5084655;28;20423;-71
2023/06/07 00:31:56;;;;;;;2.37;1.67;;;12.10;99.90;;;;;;5078131;28;20226;-71
2023/06/07 00:34:22;;;;;;;3.30;2.00;;;12.10;99.90;;;;;;5069635;28;20200;-72
2023/06/07 00:36:47;;;;;;;3.87;1.90;;;12.10;99.90;;;;;;5080454;28;20659;-72
2023/06/07 00:39:13;;;;;;;4.17;1.97;;;12.10;99.90;;;;;;5084947;28;20185;-73
2023/06/07 00:41:39;;;;;;;5.93;2.03;;;12.00;99.90;;;;;;5082001;28;20241;-73
2023/06/07 00:44:05;;;;;;;4.40;2.50;;;12.00;99.90;;;;;;5091709;28;20215;-73
2023/06/07 00:46:32;;;;;;;2.83;1.50;;;11.90;99.90;;;;;;5081028;28;20288;-73
2023/06/07 00:48:58;;;;;;;2.20;1.50;;;11.90;99.90;;;;;;5089198;28;20973;-73
2023/06/07 00:51:27;;;;;;;2.93;2.00;;;11.80;99.90;;;;;;5092067;28;20418;-73
2023/06/07 00:53:53;;;;;;;3.67;2.23;;;11.80;99.90;;;;;;5090912;28;20858;-73
2023/06/07 00:56:19;;;;;;;3.87;2.00;;;11.70;99.90;;;;;;5067753;28;20420;-72
2023/06/07 00:58:46;;;;;;;3.33;2.20;;;11.60;99.90;;;;;;5087228;28;20464;-72
2023/06/07 01:01:12;;;;;;;3.27;1.90;;;11.60;99.90;;;;;;5079428;28;20206;-72
2023/06/07 01:03:38;;;;;;;17.53;2.27;;;11.50;99.90;;;;;;5065517;28;20422;-72
2023/06/07 01:06:05;;;;;;;3.40;1.83;;;11.60;99.90;;;;;;5079834;28;20430;-72
2023/06/07 01:08:32;;;;;;;4.77;2.73;;;11.60;99.90;;;;;;5089565;28;20454;-73
2023/06/07 01:10:59;;;;;;;2.50;1.70;;;11.60;99.90;;;;;;5090946;28;20414;-73
2023/06/07 01:13:25;;;;;;;4.13;2.80;;;11.50;99.90;;;;;;5081417;28;20431;-73
2023/06/07 01:15:51;;;;;;;2.90;2.07;;;11.50;99.90;;;;;;5076575;28;20451;-73
2023/06/07 01:18:18;;;;;;;4.13;2.20;;;11.50;99.90;;;;;;5088802;28;20438;-73
2023/06/07 01:20:48;;;;;;;3.00;2.03;;;11.50;99.90;;;;;;5064023;28;20173;-73
2023/06/07 01:23:15;;;;;;;3.07;1.77;;;11.50;99.90;;;;;;5069069;28;20404;-73
2023/06/07 01:25:41;;;;;;;3.43;1.77;;;11.40;99.90;;;;;;5083601;28;20415;-73
2023/06/07 01:28:07;;;;;;;3.60;1.70;;;11.40;99.90;;;;;;5091324;28;20858;-73
2023/06/07 01:30:34;;;;;;;2.20;1.73;;;11.40;99.90;;;;;;5064296;28;20198;-73
2023/06/07 01:33:03;;;;;;;3.33;1.90;;;11.30;99.90;;;;;;5059062;28;20780;-73
2023/06/07 01:35:30;;;;;;;3.23;2.30;;;11.30;99.90;;;;;;5064400;28;20455;-73
2023/06/07 01:37:57;;;;;;;7.83;2.43;;;11.30;99.90;;;;;;5091352;28;20426;-72
2023/06/07 01:40:24;;;;;;;2.60;1.90;;;11.20;99.90;;;;;;5090255;28;20406;-72
2023/06/07 01:42:52;;;;;;;4.80;2.60;;;11.20;99.90;;;;;;5090952;28;20483;-73
2023/06/07 01:45:18;;;;;;;4.10;1.90;;;11.20;99.90;;;;;;5090836;28;20421;-73
2023/06/07 01:47:44;;;;;;;3.07;2.00;;;11.10;99.90;;;;;;5091158;28;20414;-73
2023/06/07 01:50:10;;;;;;;2.60;1.60;;;11.10;99.90;;;;;;5089748;28;20180;-73
2023/06/07 01:52:36;;;;;;;13.37;1.80;;;11.00;99.90;;;;;;5070182;28;20531;-73
2023/06/07 01:55:05;;;;;;;4.30;2.03;;;11.00;99.90;;;;;;5070037;28;20292;-73
2023/06/07 01:57:37;;;;;;;5.57;2.77;;;11.00;99.90;;;;;;5078640;28;20225;-73
2023/06/07 02:00:21;;;;;;;5.13;2.87;;;11.00;99.90;;;;;;5090766;28;20415;-73
2023/06/07 02:03:01;;;;;;;4.40;1.93;;;11.00;99.90;;;;;;5074708;28;20423;-73
2023/06/07 02:05:33;;;;;;;4.10;1.73;;;10.90;99.90;;;;;;5076611;28;20446;-73
2023/06/07 02:08:02;;;;;;;2.80;1.30;;;10.80;99.90;;;;;;5078727;28;20875;-73
2023/06/07 02:10:30;;;;;;;3.10;2.27;;;10.90;99.90;;;;;;5085828;28;20410;-73
2023/06/07 02:12:57;;;;;;;6.67;2.47;;;10.90;99.90;;;;;;5087212;28;20513;-71
2023/06/07 02:15:23;;;;;;;3.77;1.73;;;10.80;99.90;;;;;;5080097;28;20508;-70
2023/06/07 02:17:58;;;;;;;4.17;2.17;;;10.90;99.90;;;;;;5060575;28;20424;-70
2023/06/07 02:20:28;;;;;;;4.67;2.17;;;10.80;99.90;;;;;;5067297;28;20180;-70
2023/06/07 02:22:56;;;;;;;4.13;2.20;;;10.80;99.90;;;;;;5080170;28;20414;-71
2023/06/07 02:25:22;;;;;;;3.03;2.07;;;10.70;99.90;;;;;;5094062;28;20517;-71
2023/06/07 02:27:49;;;;;;;4.43;2.37;;;10.70;99.90;;;;;;5079799;28;20858;-71
2023/06/07 02:30:15;;;;;;;4.33;2.27;;;10.70;99.90;;;;;;5085652;28;20917;-71
2023/06/07 02:32:45;;;;;;;5.47;2.27;;;10.70;99.90;;;;;;5093637;28;20844;-71
2023/06/07 02:35:11;;;;;;;2.53;1.70;;;10.60;99.90;;;;;;5065558;28;20467;-71
2023/06/07 02:37:37;;;;;;;2.77;1.70;;;10.60;99.90;;;;;;5092533;28;20421;-71
2023/06/07 02:40:09;;;;;;;5.17;2.70;;;10.60;99.90;;;;;;5081238;28;20502;-71
2023/06/07 02:42:36;;;;;;;3.10;2.10;;;10.60;99.90;;;;;;5092498;28;20176;-71
2023/06/07 02:45:02;;;;;;;4.20;2.13;;;10.60;99.90;;;;;;5093783;28;20426;-70
2023/06/07 02:47:28;;;;;;;3.20;2.40;;;10.60;99.90;;;;;;5093791;28;20419;-70
2023/06/07 02:49:54;;;;;;;3.03;2.00;;;10.60;99.90;;;;;;5093628;28;20914;-70
2023/06/07 02:52:20;;;;;;;3.47;2.10;;;10.70;99.90;;;;;;5093042;28;20442;-70
2023/06/07 02:54:45;;;;;;;5.13;2.70;;;10.60;99.90;;;;;;5092653;28;20699;-70
2023/06/07 02:57:11;;;;;;;3.30;2.07;;;10.60;99.90;;;;;;5086200;28;20186;-70
2023/06/07 02:59:39;;;;;;;3.37;2.03;;;10.60;99.90;;;;;;5078469;28;20193;-70
2023/06/07 03:02:05;;;;;;;6.67;2.73;;;10.50;99.90;;;;;;5093123;28;20176;-70
2023/06/07 03:04:31;;;;;;;4.60;2.10;;;10.60;99.90;;;;;;5062757;28;20467;-70
2023/06/07 03:06:58;;;;;;;2.87;2.10;;;10.50;99.90;;;;;;5072945;28;20419;-70
2023/06/07 03:09:24;;;;;;;5.70;2.20;;;10.50;99.90;;;;;;5085982;28;20188;-70
2023/06/07 03:11:50;;;;;;;2.73;1.80;;;10.50;99.90;;;;;;5092677;28;20422;-70
2023/06/07 03:14:19;;;;;;;29.80;3.03;;;10.40;99.90;;;;;;5079324;28;20467;-70
2023/06/07 03:16:46;;;;;;;2.03;1.40;;;10.40;99.90;;;;;;5078572;28;20177;-70
2023/06/07 03:19:12;;;;;;;3.57;2.17;;;10.40;99.90;;;;;;5075817;28;20526;-70
2023/06/07 03:21:38;;;;;;;4.30;2.97;;;10.50;99.90;;;;;;5066226;28;20465;-70
2023/06/07 03:24:05;;;;;;;5.47;2.83;;;10.60;99.90;;;;;;5073788;28;20431;-70
2023/06/07 03:26:31;;;;;;;6.93;2.37;;;10.40;99.90;;;;;;5079844;28;20215;-70
2023/06/07 03:28:57;;;;;;;4.27;2.80;;;10.50;99.90;;;;;;5070486;28;20419;-70
2023/06/07 03:31:23;;;;;;;4.00;2.43;;;10.40;99.90;;;;;;5086078;28;20783;-70
2023/06/07 03:33:49;;;;;;;3.37;2.40;;;10.40;99.90;;;;;;5072554;28;20744;-70
2023/06/07 03:36:17;;;;;;;2.90;1.90;;;10.30;99.90;;;;;;5092952;28;20529;-70
2023/06/07 03:38:42;;;;;;;4.33;2.70;;;10.30;99.90;;;;;;5092747;28;20177;-70
2023/06/07 03:41:08;;;;;;;5.27;2.03;;;10.30;99.90;;;;;;5084438;28;20427;-70
2023/06/07 03:43:34;;;;;;;3.20;2.00;;;10.30;99.90;;;;;;5085454;28;20207;-70
2023/06/07 03:45:59;;;;;;;2.60;2.00;;;10.40;99.90;;;;;;5067448;28;20243;-70
2023/06/07 03:48:25;;;;;;;3.87;2.17;;;10.30;99.90;;;;;;5068067;28;20673;-71
2023/06/07 03:50:51;;;;;;;4.47;2.50;;;10.40;99.90;;;;;;5070386;28;20177;-71
2023/06/07 03:53:16;;;;;;;4.30;2.33;;;10.30;99.90;;;;;;5071758;28;20239;-70
2023/06/07 03:55:42;;;;;;;3.00;2.13;;;10.20;99.90;;;;;;5051412;28;20218;-70
2023/06/07 03:58:08;;;;;;;7.50;2.33;;;10.20;99.90;;;;;;5054066;28;20193;-71
2023/06/07 04:00:34;;;;;;;4.53;2.97;;;10.30;99.90;;;;;;5051426;28;20264;-71
2023/06/07 04:03:00;;;;;;;6.40;2.70;;;10.30;99.90;;;;;;5051517;28;20503;-70
2023/06/07 04:05:26;;;;;;;3.03;1.93;;;10.30;99.90;;;;;;5051097;28;20193;-70
2023/06/07 04:07:53;;;;;;;6.63;2.40;;;10.30;99.90;;;;;;5065207;28;20235;-73
2023/06/07 04:10:18;;;;;;;8.30;2.77;;;10.50;99.90;;;;;;5051490;28;20420;-73
2023/06/07 04:12:45;;;;;;;5.13;2.80;;;10.40;99.90;;;;;;5051202;28;20947;-72
2023/06/07 04:15:10;;;;;;;5.67;3.13;;;10.50;99.90;;;;;;5064839;28;20221;-73
2023/06/07 04:17:36;;;;;;;5.63;2.70;;;10.60;99.90;;;;;;5057076;28;20416;-72
2023/06/07 04:20:02;;;;;;;4.13;2.30;;;10.60;99.90;;;;;;5071371;28;20508;-72
2023/06/07 04:22:27;;;;;;;6.30;3.13;;;10.60;99.90;;;;;;5068766;28;20242;-72
2023/06/07 04:24:53;;;;;;;4.90;3.30;;;10.60;99.90;;;;;;5061024;28;20189;-73
2023/06/07 04:27:19;;;;;;;6.43;2.90;;;10.70;99.90;;;;;;5051844;28;20185;-73
2023/06/07 04:29:49;;;;;;;6.33;2.27;;;10.70;99.90;;;;;;5063981;28;20451;-73
2023/06/07 04:32:18;;;;;;;3.20;2.13;;;10.80;99.90;;;;;;5064411;28;20618;-72
2023/06/07 04:34:48;;;;;;;9.37;2.70;;;10.80;99.90;;;;;;5063378;28;20459;-72
2023/06/07 04:37:14;;;;;;;5.70;2.77;;;10.90;99.90;;;;;;5057790;28;20420;-72
2023/06/07 04:39:40;;;;;;;5.10;3.20;;;11.00;99.90;;;;;;5062301;28;20461;-71
2023/06/07 04:42:07;;;;;;;6.37;2.73;;;11.10;99.90;;;;;;5052623;28;20209;-71
2023/06/07 04:44:36;;;;;;;4.73;2.67;;;11.10;99.90;;;;;;5062620;28;20420;-71
2023/06/07 04:47:03;;;;;;;5.90;3.00;;;11.20;99.90;;;;;;5055317;28;20430;-70
2023/06/07 04:49:33;;;;;;;5.57;2.20;;;11.20;99.90;;;;;;5059767;28;20899;-70
2023/06/07 04:52:01;;;;;;;6.20;3.17;;;11.30;99.90;;;;;;5054313;28;20869;-71
2023/06/07 04:54:28;;;;;;;5.50;2.67;;;11.40;99.90;;;;;;5050226;28;20800;-71
2023/06/07 04:56:53;;;;;;;3.73;2.80;;;11.40;99.90;;;;;;5064603;28;20416;-71
2023/06/07 04:59:19;;;;;;;3.83;2.20;;;11.50;99.90;;;;;;5050731;28;20439;-71
2023/06/07 05:01:45;;;;;;;4.23;2.30;;;11.50;99.90;;;;;;5050119;28;20232;-71
2023/06/07 05:04:11;;;;;;;4.80;3.17;;;11.60;99.90;;;;;;5060181;28;20184;-71
2023/06/07 05:06:37;;;;;;;5.00;2.67;;;11.70;99.90;;;;;;5057261;28;20485;-71
2023/06/07 05:09:06;;;;;;;5.23;2.87;;;11.80;99.90;;;;;;5070198;28;20272;-71
2023/06/07 05:11:32;;;;;;;6.47;3.20;;;11.90;99.90;;;;;;5054210;28;20431;-70
2023/06/07 05:13:58;;;;;;;7.17;2.73;;;11.90;99.90;;;;;;5049732;28;20474;-70
2023/06/07 05:16:24;;;;;;;4.73;2.73;;;12.00;99.90;;;;;;5060395;28;20205;-71
2023/06/07 05:18:50;;;;;;;3.83;2.50;;;12.10;99.90;;;;;;5056778;28;20187;-71
2023/06/07 05:21:16;;;;;;;5.43;2.90;;;12.20;99.90;;;;;;5068536;28;20412;-71
2023/06/07 05:23:43;;;;;;;8.37;3.30;;;12.20;99.90;;;;;;5070138;28;21207;-71
2023/06/07 05:26:08;;;;;;;5.50;3.60;;;12.40;99.90;;;;;;5056827;28;20473;-70
2023/06/07 05:28:35;;;;;;;3.17;2.63;;;12.40;99.90;;;;;;5060272;28;20444;-70
2023/06/07 05:31:01;;;;;;;4.73;2.90;;;12.50;99.90;;;;;;5050023;28;20193;-70
2023/06/07 05:33:30;;;;;;;3.97;2.70;;;12.60;99.90;;;;;;5050398;28;20420;-70
2023/06/07 05:35:56;;;;;;;7.73;3.50;;;12.60;99.90;;;;;;5062522;28;20424;-71
2023/06/07 05:38:22;;;;;;;6.80;3.73;;;12.70;99.90;;;;;;5060308;28;20990;-70
2023/06/07 05:40:48;;;;;;;5.07;3.00;;;12.80;99.90;;;;;;5049742;28;20440;-71
2023/06/07 05:43:13;;;;;;;8.43;3.30;;;12.90;99.90;;;;;;5063183;28;20207;-71
2023/06/07 05:45:40;;;;;;;3.57;2.40;;;13.00;99.90;;;;;;5056678;28;20220;-71
2023/06/07 05:48:07;;;;;;;3.97;2.80;;;13.10;99.90;;;;;;5065067;28;20177;-71
2023/06/07 05:50:33;;;;;;;6.20;3.20;;;13.30;99.90;;;;;;5060569;28;20414;-71
2023/06/07 05:52:59;;;;;;;8.10;3.63;;;13.40;99.90;;;;;;5063222;28;20806;-71
2023/06/07 05:55:28;;;;;;;5.07;3.33;;;13.50;99.90;;;;;;5057337;28;20679;-71
2023/06/07 05:57:57;;;;;;;5.53;3.30;;;13.60;99.90;;;;;;5062950;28;20629;-71
2023/06/07 06:00:22;;;;;;;5.47;3.30;;;13.80;99.90;;;;;;5071176;28;20443;-72
2023/06/07 06:02:48;;;;;;;4.70;2.73;;;13.90;99.90;;;;;;5062725;28;20448;-72
2023/06/07 06:05:15;;;;;;;6.47;3.10;;;14.00;99.90;;;;;;5054647;28;20268;-72
2023/06/07 06:07:41;;;;;;;12.47;3.90;;;14.10;99.90;;;;;;5053999;28;20189;-72
2023/06/07 06:10:07;;;;;;;6.40;2.80;;;14.20;99.90;;;;;;5071291;28;20465;-72
2023/06/07 06:12:33;;;;;;;4.10;3.20;;;14.20;99.90;;;;;;5062490;28;20431;-72
2023/06/07 06:15:00;;;;;;;4.30;3.00;;;14.30;99.90;;;;;;5066265;28;20459;-72
2023/06/07 06:17:25;;;;;;;11.60;3.40;;;14.50;99.90;;;;;;5048855;28;20180;-71
2023/06/07 06:19:51;;;;;;;4.60;3.00;;;14.60;99.90;;;;;;5063047;28;20503;-71
2023/06/07 06:22:17;;;;;;;6.93;3.37;;;14.70;99.90;;;;;;5070763;28;20187;-71
2023/06/07 06:24:42;;;;;;;8.70;3.10;;;14.80;99.90;;;;;;5057367;28;20183;-71
2023/06/07 06:27:09;;;;;;;11.77;3.23;;;14.90;99.90;;;;;;5052477;28;20661;-71
2023/06/07 06:29:35;;;;;;;4.17;3.17;;;14.90;99.90;;;;;;5062699;28;20193;-71
2023/06/07 06:32:01;;;;;;;5.90;3.50;;;15.00;99.90;;;;;;5052544;28;20424;-71
2023/06/07 06:34:28;;;;;;;3.40;2.27;;;15.10;99.90;;;;;;5066268;28;20689;-71
2023/06/07 06:36:54;;;;;;;17.27;3.20;;;15.20;99.90;;;;;;5053118;28;20428;-71
2023/06/07 06:39:19;;;;;;;6.40;3.70;;;15.30;99.90;;;;;;5059888;28;20423;-71
2023/06/07 06:41:45;;;;;;;7.33;3.90;;;15.30;99.90;;;;;;5059820;28;20744;-71
2023/06/07 06:44:11;;;;;;;13.27;2.93;;;15.40;99.90;;;;;;5058650;28;20189;-70
2023/06/07 06:46:37;;;;;;;4.83;3.20;;;15.50;99.90;;;;;;5052889;28;20207;-71
2023/06/07 06:49:03;;;;;;;13.53;3.63;;;15.50;99.90;;;;;;5066973;28;20188;-71
2023/06/07 06:51:28;;;;;;;4.27;2.70;;;15.60;99.90;;;;;;5059622;28;20435;-71
2023/06/07 06:53:54;;;;;;;7.03;3.40;;;15.70;99.90;;;;;;5051260;28;20718;-71
2023/06/07 06:56:21;;;;;;;3.93;2.20;;;15.80;99.90;;;;;;5064783;28;20177;-71
2023/06/07 06:58:46;;;;;;;7.43;3.10;;;16.10;99.90;;;;;;5068477;28;20180;-71
2023/06/07 07:01:16;;;;;;;4.73;2.90;;;16.20;99.90;;;;;;5052857;28;20764;-71
2023/06/07 07:03:42;;;;;;;4.17;2.27;;;16.30;99.90;;;;;;5052286;28;20216;-71
2023/06/07 07:06:08;;;;;;;4.10;2.23;;;16.40;99.90;;;;;;5051937;28;20424;-71
2023/06/07 07:08:35;;;;;;;4.03;2.17;;;16.50;99.90;;;;;;5064869;28;20586;-71
2023/06/07 07:11:01;;;;;;;10.23;3.10;;;16.60;99.90;;;;;;5054024;28;20227;-71
2023/06/07 07:13:27;;;;;;;4.83;2.37;;;16.90;99.90;;;;;;5057768;28;20423;-71
2023/06/07 07:15:52;;;;;;;6.63;2.57;;;17.00;99.90;;;;;;5061192;28;20212;-71
2023/06/07 07:18:18;;;;;;;3.27;2.37;;;17.20;99.90;;;;;;5067383;28;20174;-71
2023/06/07 07:20:45;;;;;;;4.67;2.50;;;17.50;99.90;;;;;;5059669;28;20269;-71
2023/06/07 07:23:11;;;;;;;2.67;1.70;;;17.50;99.90;;;;;;5058421;28;20165;-69
2023/06/07 07:25:37;;;;;;;3.20;1.97;;;17.80;99.90;;;;;;5056634;28;20474;-69
2023/06/07 07:28:03;;;;;;;7.10;3.57;;;18.10;99.90;;;;;;5055307;28;20239;-69
2023/06/07 07:30:28;;;;;;;6.60;2.77;;;18.50;99.60;;;;;;5051889;28;20196;-69
2023/06/07 07:32:56;;;;;;;4.40;2.33;;;18.70;98.90;;;;;;5060811;28;20186;-69
2023/06/07 07:35:22;;;;;;;3.87;2.50;;;19.10;98.80;;;;;;5051721;28;20201;-69
2023/06/07 07:37:49;;;;;;;3.10;2.00;;;19.70;97.60;;;;;;5056139;28;20464;-69
2023/06/07 07:40:15;;;;;;;4.47;2.80;;;20.50;95.40;;;;;;5056600;28;20419;-67
2023/06/07 07:42:40;;;;;;;3.07;1.70;;;21.30;93.90;;;;;;5058712;28;20420;-67
2023/06/07 07:45:07;;;;;;;4.13;2.60;;;22.50;90.90;;;;;;5056482;28;20185;-67
2023/06/07 07:47:33;;;;;;;4.50;2.57;;;22.40;90.80;;;;;;5054105;28;20649;-67
2023/06/07 07:49:59;;;;;;;4.53;2.30;;;22.50;90.30;;;;;;5054627;28;20420;-67
2023/06/07 07:52:25;;;;;;;4.43;2.00;;;23.00;88.90;;;;;;5050243;28;20197;-67
2023/06/07 07:54:51;;;;;;;3.40;2.10;;;23.40;86.70;;;;;;5050772;28;20223;-67
2023/06/07 07:57:17;;;;;;;6.82;2.20;;;22.80;85.10;;;;;;5054824;28;20609;-68
2023/06/07 07:59:43;;;;;;;6.28;2.08;;;23.50;85.20;;;;;;5050968;28;20245;-68
2023/06/07 08:02:09;;;;;;;4.45;2.60;;;24.10;81.90;;;;;;5050402;28;20743;-68
2023/06/07 08:04:35;;;;;;;5.28;3.00;;;24.50;81.40;;;;;;5053214;28;20227;-68
2023/06/07 08:07:01;;;;;;;4.63;2.20;;;24.20;80.00;;;;;;5056031;28;20625;-67
2023/06/07 08:09:26;;;;;;;3.65;1.77;;;24.10;80.20;;;;;;5059193;28;20239;-67
2023/06/07 08:11:52;;;;;;;3.38;2.20;;;24.90;78.40;;;;;;5056696;28;20282;-67
2023/06/07 08:14:18;;;;;;;11.75;2.65;;;25.10;76.50;;;;;;5059270;28;20228;-67
2023/06/07 08:16:44;;;;;;;5.78;2.67;;;25.00;77.20;;;;;;5060505;28;20223;-67
2023/06/07 08:19:10;;;;;;;3.35;2.08;;;24.40;77.50;;;;;;5055399;28;20189;-68
2023/06/07 08:21:37;;;;;;;4.68;2.10;;;25.10;76.60;;;;;;5063807;28;20252;-68
2023/06/07 08:24:03;;;;;;;4.15;1.83;;;25.50;73.70;;;;;;5054532;28;20193;-67
2023/06/07 08:26:30;;;;;;;3.60;2.38;;;25.30;74.60;;;;;;5056475;28;20181;-68
2023/06/07 08:28:55;;;;;;;3.55;1.98;;;25.20;75.40;;;;;;5057081;28;20176;-68
2023/06/07 08:31:22;;;;;;;15.00;3.05;;;25.40;73.30;;;;;;5065507;28;20196;-67
2023/06/07 08:33:48;;;;;;;8.48;2.53;;;25.30;72.50;;;;;;5050259;28;20181;-68
2023/06/07 08:36:14;;;;;;;3.83;2.30;;;24.80;74.10;;;;;;5056168;28;20187;-68
2023/06/07 08:38:41;;;;;;;3.50;2.00;;;;;;;;;;5049172;28;20188;-68
2023/06/07 08:41:07;;;;;;;5.90;2.17;;;24.90;73.80;;;;;;5054896;28;20204;-68
2023/06/07 08:43:33;;;;;;;3.58;1.75;;;25.00;73.70;;;;;;5049218;28;20204;-68
2023/06/07 08:46:05;;;;;;;3.45;2.03;;;;;;;;;;5049331;28;21062;-68
2023/06/07 08:48:33;;;;;;;4.00;2.38;;;;;;;;;;5048567;28;20781;-68
2023/06/07 08:51:04;;;;;;;13.95;1.83;;;26.20;71.90;;;;;;5049435;28;20540;-68
2023/06/07 08:53:45;;;;;;;2.78;1.85;;;25.80;70.90;;;;;;5052128;28;20745;-68
2023/06/07 08:56:12;;;;;;;3.13;1.75;;;26.00;71.80;;;;;;5051494;28;20180;-68
2023/06/07 08:58:39;;;;;;;3.53;1.90;;;26.00;72.00;;;;;;5048361;28;20185;-68
2023/06/07 09:01:05;;;;;;;4.35;1.90;;;26.40;68.70;;;;;;5047658;28;20200;-68
2023/06/07 09:03:31;;;;;;;3.90;2.08;;;26.40;68.50;;;;;;5047710;28;20583;-68
2023/06/07 09:05:57;;;;;;;4.28;2.08;;;25.70;71.90;;;;;;5048720;28;20292;-68
2023/06/07 09:08:22;;;;;;;5.68;2.30;;;25.30;72.00;;;;;;5047506;28;20189;-68
2023/06/07 09:10:48;;;;;;;3.15;1.98;;;25.50;70.30;;;;;;5049164;28;20618;-68
2023/06/07 09:13:20;;;;;;;4.18;2.38;;;25.70;69.80;;;;;;5050193;28;20193;-68
2023/06/07 09:15:49;;;;;;;5.35;2.92;;;25.70;70.50;;;;;;5050828;28;20197;-68
2023/06/07 09:18:14;;;;;;;3.63;2.20;;;25.80;70.60;;;;;;5048587;28;20178;-68
2023/06/07 09:20:41;;;;;;;4.28;1.92;;;26.10;69.10;;;;;;5054376;28;20679;-68
2023/06/07 09:23:09;;;;;;;5.95;2.45;;;25.80;70.50;;;;;;5061127;28;20259;-68
2023/06/07 09:25:35;;;;;;;4.35;2.33;;;26.00;69.40;;;;;;5054644;28;20583;-68
2023/06/07 09:28:10;;;;;;;3.30;1.85;;;26.10;69.20;;;;;;5049586;28;20714;-68
2023/06/07 09:30:45;;;;;;;3.85;2.15;;;25.30;70.40;;;;;;5046705;28;20199;-68
2023/06/07 09:33:28;;;;;;;6.43;2.13;;;25.50;69.70;;;;;;5047515;28;20208;-68
2023/06/07 09:36:04;;;;;;;3.78;1.92;;;;;;;;;;5052974;28;20211;-68
2023/06/07 09:38:30;;;;;;;8.43;2.58;;;24.90;69.30;;;;;;5048196;28;20191;-68
2023/06/07 09:40:59;;;;;;;3.60;2.03;;;23.70;74.50;;;;;;5047250;28;20184;-68
2023/06/07 09:43:25;;;;;;;2.88;1.98;;;23.10;74.10;;;;;;5058312;28;20177;-68
2023/06/07 09:45:55;;;;;;;3.80;2.10;;;23.10;74.80;;;;;;5053294;28;20249;-68
2023/06/07 09:48:21;;;;;;;4.70;2.17;;;22.70;76.90;;;;;;5054821;28;20185;-68
2023/06/07 09:50:59;;;;;;;4.30;2.50;;;22.30;78.40;;;;;;5047794;28;20196;-67
2023/06/07 09:53:27;;;;;;;7.77;1.57;;;22.30;78.10;;;;;;5049620;28;20482;-69
2023/06/07 09:55:52;;;;;;;3.17;2.10;;;22.60;75.80;;;;;;5047847;28;20474;-70
2023/06/07 09:58:19;;;;;;;5.50;2.30;;;23.00;76.90;;;;;;5052973;28;20427;-70
2023/06/07 10:00:46;;;;;;;7.47;2.47;;;23.30;75.30;;;;;;5059638;28;20173;-70
2023/06/07 10:03:12;;;;;;;4.05;2.13;;;24.10;77.30;;;;;;5048306;28;20264;-70
2023/06/07 10:05:39;;;;;;;3.58;2.58;;;24.70;76.40;;;;;;5057513;28;20195;-70
2023/06/07 10:08:06;;;;;;;4.15;1.85;;;25.00;70.90;;;;;;5050183;28;20178;-70
2023/06/07 10:10:35;;;;;;;3.25;1.92;;;25.00;70.00;;;;;;5049440;28;20520;-70
2023/06/07 10:13:04;;;;;;;3.50;2.22;;;25.50;71.10;;;;;;5049033;28;20280;-70
2023/06/07 10:15:31;;;;;;;2.75;1.77;;;25.50;69.30;;;;;;5049764;28;20228;-70
2023/06/07 10:18:12;;;;;;;4.20;1.77;;;25.60;67.50;;;;;;5050817;28;20416;-70
2023/06/07 10:20:49;;;;;;;4.63;2.28;;;25.80;63.10;;;;;;5050812;28;20249;-70
2023/06/07 10:23:24;;;;;;;4.88;2.25;;;25.80;63.60;;;;;;5062457;28;20212;-70
2023/06/07 10:26:06;;;;;;;3.20;1.90;;;25.80;61.30;;;;;;5052423;28;20184;-70
2023/06/07 10:28:40;;;;;;;2.30;1.50;;;25.80;61.40;;;;;;5046856;28;20208;-70
2023/06/07 10:31:10;;;;;;;3.83;1.63;;;24.80;64.30;;;;;;5050752;28;20181;-70
2023/06/07 10:33:38;;;;;;;3.33;1.70;;;24.80;63.80;;;;;;5054822;28;20660;-70
2023/06/07 10:36:09;;;;;;;3.70;1.93;;;25.00;63.80;;;;;;5056075;28;20212;-71
2023/06/07 10:38:34;;;;;;;3.90;1.40;;;25.00;62.30;;;;;;5058017;28;20412;-70
2023/06/07 10:41:03;;;;;;;7.93;1.60;;;24.80;60.00;;;;;;5050975;28;20434;-70
2023/06/07 10:43:30;;;;;;;4.63;2.00;;;24.80;59.60;;;;;;5060054;28;20184;-70
2023/06/07 10:46:23;;;;;;;10.50;1.33;;;24.90;60.70;;;;;;5050737;28;20424;-71
2023/06/07 10:48:49;;;;;;;5.17;2.00;;;25.00;61.00;;;;;;5052705;28;20421;-70
2023/06/07 10:51:15;;;;;;;3.90;2.00;;;24.70;64.00;;;;;;5050873;28;20438;-71
2023/06/07 10:53:56;;;;;;;3.27;1.57;;;24.30;63.20;;;;;;5050325;28;20856;-70
2023/06/07 10:56:33;;;;;;;4.03;1.90;;;24.10;66.30;;;;;;5051294;28;20185;-70
2023/06/07 10:59:14;;;;;;;3.20;1.77;;;23.90;67.00;;;;;;5050828;28;20450;-70
2023/06/07 11:01:40;;;;;;;2.57;1.13;;;23.40;66.70;;;;;;5059139;28;20419;-70
2023/06/07 11:04:06;;;;;;;2.97;1.80;;;23.40;67.80;;;;;;5058318;28;20427;-70
2023/06/07 11:06:33;;;;;;;3.80;2.30;;;23.40;67.70;;;;;;5050901;28;20420;-70
2023/06/07 11:09:25;;;;;;;3.17;1.40;;;23.50;69.80;;;;;;5050777;28;20426;-70
2023/06/07 11:11:51;;;;;;;5.67;1.80;;;23.80;71.00;;;;;;5050674;28;20416;-70
2023/06/07 11:14:17;;;;;;;2.90;1.80;;;24.10;67.50;;;;;;5054117;28;20458;-69
2023/06/07 11:16:43;;;;;;;7.13;1.80;;;24.30;64.40;;;;;;5053355;28;20178;-70
2023/06/07 11:19:14;;;;;;;3.33;1.70;;;24.40;63.60;;;;;;5053711;28;20431;-70
2023/06/07 11:21:55;;;;;;;2.90;1.47;;;24.30;66.20;;;;;;5056217;28;20192;-70
2023/06/07 11:24:22;;;;;;;2.33;1.60;;;24.00;65.60;;;;;;5061940;28;21006;-70
2023/06/07 11:26:50;;;;;;;2.87;1.67;;;24.30;65.50;;;;;;5051337;28;20467;-70
2023/06/07 11:29:16;;;;;;;3.63;1.60;;;24.20;65.10;;;;;;5050287;28;20499;-70
2023/06/07 11:31:45;;;;;;;2.43;1.30;;;24.10;65.60;;;;;;5050782;28;20420;-70
2023/06/07 11:34:14;;;;;;;5.43;1.77;;;24.50;65.10;;;;;;5050194;28;20577;-70
2023/06/07 11:36:41;;;;;;;5.70;1.70;;;24.80;64.80;;;;;;5054022;28;20507;-70
2023/06/07 11:39:08;;;;;;;5.33;1.90;;;24.90;62.70;;;;;;5050297;28;20415;-70
2023/06/07 11:41:34;;;;;;;8.70;1.77;;;24.90;63.00;;;;;;5051726;28;20444;-70
2023/06/07 11:44:04;;;;;;;2.60;1.30;;;24.90;61.10;;;;;;5050226;28;20448;-70
2023/06/07 11:46:36;;;;;;;4.27;1.70;;;25.20;62.90;;;;;;5049567;28;20458;-70
2023/06/07 11:49:07;;;;;;;3.30;1.60;;;25.30;64.10;;;;;;5050015;28;20792;-71
2023/06/07 11:51:33;;;;;;;11.67;2.10;;;24.90;62.40;;;;;;5049787;28;20455;-70
2023/06/07 11:53:59;;;;;;;5.63;2.93;;;24.80;62.80;;;;;;5056639;28;20451;-70
2023/06/07 11:56:27;;;;;;;3.10;1.50;;;24.80;61.60;;;;;;5050060;28;20181;-70
2023/06/07 11:58:53;;;;;;;5.60;1.90;;;;;;;;;;5050257;28;20873;-70
2023/06/07 12:01:19;;;;;;;3.80;1.97;;;24.60;61.10;;;;;;5050150;28;20412;-70
2023/06/07 12:03:46;;;;;;;4.33;1.50;;;24.90;60.30;;;;;;5049993;28;20177;-69
2023/06/07 12:06:13;;;;;;;3.33;1.90;;;25.10;63.30;;;;;;5050242;28;20646;-69
2023/06/07 12:08:38;;;;;;;5.50;2.13;;;25.20;61.20;;;;;;5049608;28;20530;-69
2023/06/07 12:11:04;;;;;;;3.70;1.93;;;25.30;61.90;;;;;;5049552;28;21207;-69
2023/06/07 12:13:37;;;;;;;2.40;1.63;;;25.50;58.90;;;;;;5052245;28;20783;-69
2023/06/07 12:16:04;;;;;;;3.63;1.80;;;25.50;59.30;;;;;;5054449;28;20240;-71
2023/06/07 12:18:32;;;;;;;3.50;1.17;;;25.70;56.80;;;;;;5052387;28;20407;-70
2023/06/07 12:21:08;;;;;;;3.07;1.80;;;25.60;58.90;;;;;;5052822;28;20426;-70
2023/06/07 12:23:37;;;;;;;4.70;1.83;;;25.10;59.40;;;;;;5057490;28;20177;-70
2023/06/07 12:26:10;;;;;;;2.90;1.47;;;;;;;;;;5049322;28;20426;-70
2023/06/07 12:28:38;;;;;;;4.47;1.70;;;24.50;60.80;;;;;;5051474;28;20726;-70
2023/06/07 12:31:04;;;;;;;3.80;1.93;;;;;;;;;;5049612;28;20744;-70
2023/06/07 12:33:29;;;;;;;17.03;1.80;;;24.60;61.70;;;;;;5049428;28;20450;-70
2023/06/07 12:35:59;;;;;;;2.63;1.60;;;24.50;62.70;;;;;;5049776;28;20463;-70
2023/06/07 12:38:25;;;;;;;2.57;1.50;;;24.50;60.20;;;;;;5048969;28;20181;-70
2023/06/07 12:40:51;;;;;;;5.13;1.80;;;24.20;61.10;;;;;;5054234;28;20429;-70
2023/06/07 12:43:17;;;;;;;18.33;2.17;;;23.60;64.80;;;;;;5052080;28;20412;-69
2023/06/07 12:45:43;;;;;;;5.10;1.63;;;23.50;63.00;;;;;;5049125;28;20181;-70
2023/06/07 12:48:09;;;;;;;3.23;1.60;;;23.90;62.40;;;;;;5057125;28;20418;-70